createdAt,value
2016-02-08T00:00:44.534Z,66.05
2016-02-08T00:01:44.536Z,66.14
2016-02-08T00:02:44.539Z,66.24
2016-02-08T00:03:44.542Z,66.24
2016-02-08T00:04:44.528Z,66.33
2016-02-08T00:05:44.533Z,66.33
2016-02-08T00:06:44.536Z,66.33
2016-02-08T00:07:44.571Z,66.14
2016-02-08T00:08:44.541Z,66.33
2016-02-08T00:09:44.529Z,65.86
2016-02-08T00:10:44.532Z,65.76
2016-02-08T00:11:44.535Z,65.86
2016-02-08T00:12:44.527Z,65.67
2016-02-08T00:13:44.561Z,65.86
2016-02-08T00:14:44.533Z,65.86
2016-02-08T00:15:44.536Z,65.86
2016-02-08T00:16:44.539Z,66.14
2016-02-08T00:17:44.525Z,66.05
2016-02-08T00:18:44.528Z,65.67
2016-02-08T00:19:44.533Z,66.14
2016-02-08T00:20:44.520Z,66.24
2016-02-08T00:21:44.523Z,65.95
2016-02-08T00:22:44.557Z,65.95
2016-02-08T00:23:44.528Z,66.14
2016-02-08T00:24:44.531Z,65.95
2016-02-08T00:25:44.548Z,65.57
2016-02-08T00:26:44.520Z,65.19
2016-02-08T00:27:44.525Z,65.19
2016-02-08T00:28:44.543Z,65.47
2016-02-08T00:29:44.530Z,66.05
2016-02-08T00:30:44.517Z,65.38
2016-02-08T00:31:44.520Z,65.76
2016-02-08T00:32:44.522Z,65.76
2016-02-08T00:33:44.525Z,65.38
2016-02-08T00:34:44.528Z,65.67
2016-02-08T00:35:44.520Z,65.86
2016-02-08T00:36:44.522Z,65.47
2016-02-08T00:37:44.508Z,65.28
2016-02-08T00:38:44.528Z,65.38
2016-02-08T00:39:44.514Z,65.19
2016-02-08T00:40:44.518Z,65.38
2016-02-08T00:41:44.521Z,64.87
2016-02-08T00:42:44.519Z,65.47
2016-02-08T00:43:44.521Z,65.28
2016-02-08T00:44:44.509Z,65.28
2016-02-08T00:45:44.527Z,65.38
2016-02-08T00:46:44.514Z,65.47
2016-02-08T00:47:44.517Z,65.28
2016-02-08T00:48:44.519Z,64.81
2016-02-08T00:49:44.522Z,65.38
2016-02-08T00:50:44.525Z,65.67
2016-02-08T00:51:44.511Z,65
2016-02-08T00:52:44.507Z,64.81
2016-02-08T00:53:44.509Z,64.9
2016-02-08T00:54:44.512Z,64.9
2016-02-08T00:55:44.531Z,64.9
2016-02-08T00:56:44.502Z,65.09
2016-02-08T00:57:44.505Z,64.9
2016-02-08T00:58:44.524Z,64.81
2016-02-08T00:59:44.511Z,64.62
2016-02-08T01:00:44.513Z,64.9
2016-02-08T01:01:44.516Z,64.9
2016-02-08T01:02:44.523Z,64.9
2016-02-08T01:03:44.495Z,64.72
2016-02-08T01:04:44.513Z,64.81
2016-02-08T01:05:44.500Z,64.9
2016-02-08T01:06:44.502Z,65.09
2016-02-08T01:07:44.506Z,65.28
2016-02-08T01:08:44.493Z,65.25
2016-02-08T01:09:44.496Z,65.38
2016-02-08T01:10:44.499Z,65.16
2016-02-08T01:11:44.489Z,65.25
2016-02-08T01:12:44.492Z,65.38
2016-02-08T01:13:44.495Z,65.44
2016-02-08T01:14:44.512Z,65.35
2016-02-08T01:15:44.501Z,65.06
2016-02-08T01:16:44.504Z,64.9
2016-02-08T01:17:44.490Z,64.97
2016-02-08T01:18:44.493Z,65.25
2016-02-08T01:19:44.496Z,65.16
2016-02-08T01:20:44.499Z,65.35
2016-02-08T01:21:44.485Z,65.54
2016-02-08T01:22:44.488Z,65.44
2016-02-08T01:23:44.491Z,65.25
2016-02-08T01:24:44.494Z,65.25
2016-02-08T01:25:44.481Z,65.44
2016-02-08T01:26:44.485Z,65.63
2016-02-08T01:27:44.471Z,65.73
2016-02-08T01:28:44.490Z,65.54
2016-02-08T01:29:44.493Z,65.63
2016-02-08T01:30:44.480Z,66.01
2016-02-08T01:31:44.482Z,65.54
2016-02-08T01:32:44.485Z,65.73
2016-02-08T01:33:44.331Z,66.11
2016-02-08T01:34:44.475Z,65.92
2016-02-08T01:35:44.478Z,65.82
2016-02-08T01:36:44.482Z,66.01
2016-02-08T01:37:44.484Z,66.2
2016-02-08T01:38:44.471Z,66.01
2016-02-08T01:39:44.473Z,65.82
2016-02-08T01:40:44.472Z,65.82
2016-02-08T01:41:44.616Z,65.63
2016-02-08T01:42:44.494Z,66.11
2016-02-08T01:43:44.465Z,66.39
2016-02-08T01:44:44.485Z,66.3
2016-02-08T01:45:44.487Z,66.3
2016-02-08T01:46:44.475Z,66.2
2016-02-08T01:47:44.477Z,66.2
2016-02-08T01:48:44.479Z,66.67
2016-02-08T01:49:44.530Z,66.58
2016-02-08T01:50:44.503Z,66.58
2016-02-08T01:51:45.286Z,66.58
2016-02-08T01:52:44.461Z,66.58
2016-02-08T01:53:44.619Z,66.3
2016-02-08T01:54:44.466Z,66.49
2016-02-08T01:55:44.468Z,66.67
2016-02-08T01:56:44.455Z,66.49
2016-02-08T01:57:44.458Z,66.67
2016-02-08T01:58:44.446Z,66.49
2016-02-08T01:59:44.450Z,66.77
2016-02-08T02:00:44.483Z,66.58
2016-02-08T02:01:44.454Z,66.77
2016-02-08T02:02:44.457Z,66.96
2016-02-08T02:03:44.465Z,66.39
2016-02-08T02:04:44.451Z,66.77
2016-02-08T02:05:44.454Z,66.49
2016-02-08T02:06:44.456Z,66.96
2016-02-08T02:07:44.443Z,66.96
2016-02-08T02:08:44.445Z,66.77
2016-02-08T02:09:44.439Z,66.87
2016-02-08T02:10:44.442Z,67.25
2016-02-08T02:11:44.444Z,66.87
2016-02-08T02:12:44.478Z,67.15
2016-02-08T02:13:44.434Z,66.96
2016-02-08T02:14:44.452Z,67.02
2016-02-08T02:15:44.439Z,66.96
2016-02-08T02:16:44.442Z,67.02
2016-02-08T02:17:44.429Z,67.5
2016-02-08T02:18:44.447Z,67.5
2016-02-08T02:19:44.434Z,67.4
2016-02-08T02:20:44.437Z,66.93
2016-02-08T02:21:44.425Z,67.21
2016-02-08T02:22:44.427Z,67.4
2016-02-08T02:23:44.430Z,67.5
2016-02-08T02:24:44.449Z,67.31
2016-02-08T02:25:44.437Z,67.59
2016-02-08T02:26:44.423Z,67.4
2016-02-08T02:27:44.425Z,67.59
2016-02-08T02:28:44.428Z,67.79
2016-02-08T02:29:44.416Z,67.59
2016-02-08T02:30:44.419Z,67.79
2016-02-08T02:31:44.422Z,67.79
2016-02-08T02:32:44.424Z,67.97
2016-02-08T02:33:44.427Z,68.07
2016-02-08T02:34:44.414Z,68.44
2016-02-08T02:35:44.417Z,68.54
2016-02-08T02:36:44.420Z,68.54
2016-02-08T02:37:44.407Z,68.35
2016-02-08T02:38:44.397Z,68.83
2016-02-08T02:39:44.415Z,69.02
2016-02-08T02:40:44.406Z,68.92
2016-02-08T02:41:44.408Z,69.02
2016-02-08T02:42:44.411Z,69.21
2016-02-08T02:43:44.399Z,69.02
2016-02-08T02:44:44.401Z,69.11
2016-02-08T02:45:44.404Z,68.83
2016-02-08T02:46:44.409Z,69.49
2016-02-08T02:47:44.381Z,69.4
2016-02-08T02:48:44.398Z,69.68
2016-02-08T02:49:44.401Z,69.68
2016-02-08T02:50:44.388Z,69.78
2016-02-08T02:51:44.376Z,69.68
2016-02-08T02:52:44.379Z,69.96
2016-02-08T02:53:44.382Z,70.15
2016-02-08T02:54:44.386Z,70.15
2016-02-08T02:55:44.389Z,70.06
2016-02-08T02:56:44.376Z,70.15
2016-02-08T02:57:44.379Z,70.15
2016-02-08T02:58:44.367Z,70.25
2016-02-08T02:59:44.370Z,70.15
2016-02-08T03:00:44.372Z,70.15
2016-02-08T03:01:44.359Z,70.31
2016-02-08T03:02:44.362Z,70.15
2016-02-08T03:03:44.348Z,70.06
2016-02-08T03:04:44.352Z,70.69
2016-02-08T03:05:44.354Z,70.4
2016-02-08T03:06:44.356Z,70.69
2016-02-08T03:07:44.345Z,70.5
2016-02-08T03:08:44.347Z,70.5
2016-02-08T03:09:44.350Z,70.5
2016-02-08T03:10:44.337Z,70.5
2016-02-08T03:11:44.341Z,70.5
2016-02-08T03:12:44.344Z,70.59
2016-02-08T03:13:44.330Z,70.59
2016-02-08T03:14:44.349Z,70.4
2016-02-08T03:15:44.336Z,70.98
2016-02-08T03:16:44.338Z,70.98
2016-02-08T03:17:44.327Z,70.88
2016-02-08T03:18:44.329Z,71.26
2016-02-08T03:19:44.331Z,70.69
2016-02-08T03:20:44.319Z,70.88
2016-02-08T03:21:44.310Z,71.07
2016-02-08T03:22:44.329Z,71.07
2016-02-08T03:23:44.316Z,70.78
2016-02-08T03:24:44.304Z,71.17
2016-02-08T03:25:44.305Z,70.88
2016-02-08T03:26:44.292Z,70.98
2016-02-08T03:27:44.295Z,70.88
2016-02-08T03:28:44.298Z,70.88
2016-02-08T03:29:44.302Z,71.07
2016-02-08T03:30:44.289Z,70.78
2016-02-08T03:31:44.291Z,70.78
2016-02-08T03:32:44.279Z,71.17
2016-02-08T03:33:44.296Z,70.88
2016-02-08T03:34:44.299Z,70.88
2016-02-08T03:35:44.271Z,70.88
2016-02-08T03:36:44.274Z,70.78
2016-02-08T03:37:44.293Z,71.07
2016-02-08T03:38:44.279Z,71.17
2016-02-08T03:39:44.267Z,70.98
2016-02-08T03:40:44.270Z,70.98
2016-02-08T03:41:44.257Z,70.98
2016-02-08T03:42:44.260Z,71.07
2016-02-08T03:43:44.263Z,71.17
2016-02-08T03:44:44.250Z,71.07
2016-02-08T03:45:44.268Z,71.07
2016-02-08T03:46:44.255Z,70.98
2016-02-08T03:47:44.260Z,70.88
2016-02-08T03:48:44.262Z,70.78
2016-02-08T03:49:44.250Z,71.07
2016-02-08T03:50:44.242Z,71.26
2016-02-08T03:51:44.228Z,71.07
2016-02-08T03:52:44.231Z,71.26
2016-02-08T03:53:44.281Z,71.26
2016-02-08T03:54:44.236Z,70.98
2016-02-08T03:55:44.240Z,70.98
2016-02-08T03:56:44.243Z,70.78
2016-02-08T03:57:44.228Z,70.88
2016-02-08T03:58:44.215Z,70.4
2016-02-08T03:59:44.217Z,70.88
2016-02-08T04:00:44.204Z,70.5
2016-02-08T04:01:44.207Z,70.31
2016-02-08T04:02:44.209Z,70.69
2016-02-08T04:03:44.212Z,70.4
2016-02-08T04:04:44.215Z,70.4
2016-02-08T04:05:44.202Z,70.5
2016-02-08T04:06:44.189Z,70.59
2016-02-08T04:07:44.191Z,70.63
2016-02-08T04:08:44.194Z,70.59
2016-02-08T04:09:44.183Z,70.69
2016-02-08T04:10:44.186Z,70.69
2016-02-08T04:11:44.203Z,70.59
2016-02-08T04:12:44.177Z,70.69
2016-02-08T04:13:44.180Z,70.5
2016-02-08T04:14:44.198Z,70.31
2016-02-08T04:15:44.169Z,70.59
2016-02-08T04:16:44.172Z,70.59
2016-02-08T04:17:44.176Z,70.59
2016-02-08T04:18:44.163Z,70.59
2016-02-08T04:19:44.166Z,70.4
2016-02-08T04:20:44.169Z,70.59
2016-02-08T04:21:44.155Z,70.21
2016-02-08T04:22:44.159Z,70.4
2016-02-08T04:23:44.192Z,70.31
2016-02-08T04:24:44.148Z,70.4
2016-02-08T04:25:44.137Z,70.12
2016-02-08T04:26:44.155Z,69.93
2016-02-08T04:27:44.143Z,70.21
2016-02-08T04:28:44.146Z,70.4
2016-02-08T04:29:44.148Z,70.12
2016-02-08T04:30:44.152Z,70.12
2016-02-08T04:31:44.122Z,70.12
2016-02-08T04:32:44.125Z,69.84
2016-02-08T04:33:44.128Z,69.93
2016-02-08T04:34:44.116Z,70.03
2016-02-08T04:35:44.134Z,69.74
2016-02-08T04:36:44.122Z,69.65
2016-02-08T04:37:44.124Z,70.12
2016-02-08T04:38:44.112Z,70.12
2016-02-08T04:39:44.098Z,69.93
2016-02-08T04:40:44.101Z,70.12
2016-02-08T04:41:44.104Z,70.12
2016-02-08T04:42:44.094Z,69.65
2016-02-08T04:43:44.112Z,70.21
2016-02-08T04:44:44.084Z,70.21
2016-02-08T04:45:44.086Z,69.93
2016-02-08T04:46:44.074Z,70.03
2016-02-08T04:47:44.091Z,69.84
2016-02-08T04:48:44.079Z,70.03
2016-02-08T04:49:44.082Z,70.21
2016-02-08T04:50:44.068Z,70.03
2016-02-08T04:51:44.087Z,70.21
2016-02-08T04:52:44.075Z,70.31
2016-02-08T04:53:44.078Z,70.12
2016-02-08T04:54:44.065Z,70.21
2016-02-08T04:55:44.067Z,70.31
2016-02-08T04:56:44.070Z,69.74
2016-02-08T04:57:44.058Z,69.93
2016-02-08T04:58:44.044Z,70.03
2016-02-08T04:59:44.063Z,70.03
2016-02-08T05:00:44.049Z,69.74
2016-02-08T05:01:44.052Z,70.12
2016-02-08T05:02:44.039Z,70.4
2016-02-08T05:03:44.041Z,69.84
2016-02-08T05:04:44.026Z,70.12
2016-02-08T05:05:44.029Z,69.84
2016-02-08T05:06:44.032Z,70.03
2016-02-08T05:07:44.019Z,69.93
2016-02-08T05:08:44.021Z,69.84
2016-02-08T05:09:44.024Z,69.68
2016-02-08T05:10:44.026Z,69.46
2016-02-08T05:11:44.014Z,69.84
2016-02-08T05:12:44.011Z,69.74
2016-02-08T05:13:43.998Z,69.93
2016-02-08T05:14:44.001Z,69.84
2016-02-08T05:15:43.987Z,69.93
2016-02-08T05:16:44.005Z,69.84
2016-02-08T05:17:43.992Z,69.74
2016-02-08T05:18:43.981Z,69.65
2016-02-08T05:19:43.984Z,69.46
2016-02-08T05:20:43.986Z,69.55
2016-02-08T05:21:43.990Z,69.46
2016-02-08T05:22:43.969Z,69.65
2016-02-08T05:23:43.978Z,69.46
2016-02-08T05:24:44.175Z,69.65
2016-02-08T05:25:43.950Z,69.84
2016-02-08T05:26:43.929Z,69.74
2016-02-08T05:27:43.912Z,69.36
2016-02-08T05:28:43.912Z,69.84
2016-02-08T05:29:43.895Z,69.74
2016-02-08T05:30:43.910Z,69.84
2016-02-08T05:31:43.941Z,69.46
2016-02-08T05:32:43.895Z,69.17
2016-02-08T05:33:43.881Z,69.08
2016-02-08T05:34:43.898Z,68.89
2016-02-08T05:35:43.868Z,69.27
2016-02-08T05:36:43.979Z,68.79
2016-02-08T05:37:43.856Z,69.27
2016-02-08T05:38:43.875Z,69.08
2016-02-08T05:39:43.861Z,68.98
2016-02-08T05:40:43.881Z,69.08
2016-02-08T05:41:43.855Z,69.17
2016-02-08T05:42:43.841Z,69.27
2016-02-08T05:43:43.845Z,69.08
2016-02-08T05:44:43.832Z,68.79
2016-02-08T05:45:43.835Z,68.98
2016-02-08T05:46:43.853Z,69.36
2016-02-08T05:47:43.840Z,69.27
2016-02-08T05:48:43.843Z,69.27
2016-02-08T05:49:43.830Z,69.08
2016-02-08T05:50:43.832Z,69.08
2016-02-08T05:51:43.820Z,68.79
2016-02-08T05:52:43.822Z,69.74
2016-02-08T05:53:43.825Z,69.84
2016-02-08T05:54:43.813Z,69.46
2016-02-08T05:55:43.830Z,69.74
2016-02-08T05:56:43.818Z,69.84
2016-02-08T05:57:43.805Z,70.12
2016-02-08T05:58:43.807Z,70.21
2016-02-08T05:59:43.810Z,70.12
2016-02-08T06:00:43.797Z,70.21
2016-02-08T06:01:43.800Z,70.03
2016-02-08T06:02:43.804Z,70.4
2016-02-08T06:03:43.791Z,70.59
2016-02-08T06:04:43.777Z,70.59
2016-02-08T06:05:43.781Z,70.78
2016-02-08T06:06:43.783Z,70.31
2016-02-08T06:07:43.769Z,70.59
2016-02-08T06:08:43.772Z,70.31
2016-02-08T06:09:43.775Z,70.69
2016-02-08T06:10:43.778Z,70.59
2016-02-08T06:11:43.749Z,70.78
2016-02-08T06:12:43.596Z,70.59
2016-02-08T06:13:43.757Z,70.4
2016-02-08T06:14:43.745Z,70.31
2016-02-08T06:15:43.592Z,70.69
2016-02-08T06:16:43.751Z,70.4
2016-02-08T06:17:43.739Z,70.98
2016-02-08T06:18:43.741Z,70.88
2016-02-08T06:19:43.744Z,70.4
2016-02-08T06:20:43.731Z,70.69
2016-02-08T06:21:43.718Z,70.59
2016-02-08T06:22:43.736Z,70.31
2016-02-08T06:23:43.724Z,70.59
2016-02-08T06:24:43.728Z,70.59
2016-02-08T06:25:43.714Z,70.59
2016-02-08T06:26:43.732Z,70.31
2016-02-08T06:27:43.720Z,70.69
2016-02-08T06:28:43.708Z,70.78
2016-02-08T06:29:43.711Z,70.98
2016-02-08T06:30:43.699Z,70.78
2016-02-08T06:31:43.716Z,71.45
2016-02-08T06:32:43.704Z,71.07
2016-02-08T06:33:43.707Z,71.17
2016-02-08T06:34:43.693Z,71.07
2016-02-08T06:35:43.696Z,71.36
2016-02-08T06:36:43.688Z,71.07
2016-02-08T06:37:43.675Z,71.07
2016-02-08T06:38:43.678Z,71.07
2016-02-08T06:39:43.665Z,71.36
2016-02-08T06:40:43.667Z,71.07
2016-02-08T06:41:43.670Z,71.17
2016-02-08T06:42:43.689Z,70.88
2016-02-08T06:43:43.535Z,71.36
2016-02-08T06:44:43.650Z,71.36
2016-02-08T06:45:43.653Z,71.45
2016-02-08T06:46:43.639Z,71.55
2016-02-08T06:47:43.658Z,70.69
2016-02-08T06:48:43.645Z,71.26
2016-02-08T06:49:43.631Z,70.88
2016-02-08T06:50:43.636Z,71.07
2016-02-08T06:51:43.639Z,71.36
2016-02-08T06:52:43.642Z,71.07
2016-02-08T06:53:43.629Z,71.07
2016-02-08T06:54:43.616Z,71.55
2016-02-08T06:55:43.619Z,71.36
2016-02-08T06:56:43.621Z,71.36
2016-02-08T06:57:43.609Z,71.26
2016-02-08T06:58:43.613Z,71.45
2016-02-08T06:59:43.600Z,70.59
2016-02-08T07:00:43.603Z,71.26
2016-02-08T07:01:43.653Z,71.26
2016-02-08T07:02:43.592Z,71.17
2016-02-08T07:03:43.627Z,71.26
2016-02-08T07:04:43.599Z,71.26
2016-02-08T07:05:43.586Z,71.07
2016-02-08T07:06:43.593Z,71.45
2016-02-08T07:07:43.595Z,71.07
2016-02-08T07:08:43.582Z,71.45
2016-02-08T07:09:43.586Z,71.26
2016-02-08T07:10:43.572Z,71.26
2016-02-08T07:11:43.576Z,71.26
2016-02-08T07:12:43.578Z,71.26
2016-02-08T07:13:43.566Z,71.17
2016-02-08T07:14:43.555Z,71.17
2016-02-08T07:15:43.573Z,71.07
2016-02-08T07:16:43.560Z,71.26
2016-02-08T07:17:43.547Z,70.69
2016-02-08T07:18:43.393Z,71.36
2016-02-08T07:19:43.552Z,71.36
2016-02-08T07:20:43.555Z,71.26
2016-02-08T07:21:43.543Z,71.26
2016-02-08T07:22:43.545Z,71.36
2016-02-08T07:23:43.532Z,71.26
2016-02-08T07:24:43.551Z,71.36
2016-02-08T07:25:43.523Z,71.45
2016-02-08T07:26:43.541Z,71.07
2016-02-08T07:27:43.527Z,71.36
2016-02-08T07:28:43.531Z,71.26
2016-02-08T07:29:43.518Z,71.26
2016-02-08T07:30:43.520Z,70.98
2016-02-08T07:31:43.508Z,71.11
2016-02-08T07:32:43.510Z,70.98
2016-02-08T07:33:43.497Z,70.82
2016-02-08T07:34:43.516Z,70.92
2016-02-08T07:35:43.502Z,70.44
2016-02-08T07:36:43.505Z,70.35
2016-02-08T07:37:43.508Z,70.54
2016-02-08T07:38:43.496Z,70.82
2016-02-08T07:39:43.499Z,70.73
2016-02-08T07:40:43.861Z,70.44
2016-02-08T07:41:43.693Z,70.15
2016-02-08T07:42:43.634Z,70.15
2016-02-08T07:43:43.559Z,69.68
2016-02-08T07:44:43.610Z,69.87
2016-02-08T07:45:42.878Z,69.68
2016-02-08T07:46:43.620Z,69.68
2016-02-08T07:47:43.607Z,69.49
2016-02-08T07:48:43.547Z,68.86
2016-02-08T07:49:43.675Z,69.05
2016-02-08T07:50:43.647Z,68.86
2016-02-08T07:51:43.602Z,68.19
2016-02-08T07:52:43.589Z,68.01
2016-02-08T07:53:43.546Z,68.39
2016-02-08T07:54:43.626Z,68.39
2016-02-08T07:55:43.660Z,68.01
2016-02-08T07:56:43.679Z,68.29
2016-02-08T07:57:43.556Z,68.58
2016-02-08T07:58:43.652Z,67.91
2016-02-08T07:59:43.562Z,67.82
2016-02-08T08:00:43.534Z,67.72
2016-02-08T08:01:43.648Z,68.19
2016-02-08T08:02:43.525Z,67.34
2016-02-08T08:03:43.589Z,67.53
2016-02-08T08:04:43.484Z,67.44
2016-02-08T08:05:43.626Z,67.53
2016-02-08T08:06:43.566Z,67.34
2016-02-08T08:07:43.553Z,67.53
2016-02-08T08:08:43.572Z,67.06
2016-02-08T08:09:43.637Z,67.06
2016-02-08T08:10:43.593Z,66.77
2016-02-08T08:11:43.502Z,66.96
2016-02-08T08:12:43.567Z,67.44
2016-02-08T08:13:43.574Z,67.15
2016-02-08T08:14:43.500Z,66.77
2016-02-08T08:15:43.549Z,66.96
2016-02-08T08:16:43.473Z,67.25
2016-02-08T08:17:43.460Z,66.96
2016-02-08T08:18:43.494Z,66.2
2016-02-08T08:19:43.559Z,66.67
2016-02-08T08:20:43.453Z,66.77
2016-02-08T08:21:43.582Z,66.67
2016-02-08T08:22:43.490Z,65.63
2016-02-08T08:23:43.634Z,66.3
2016-02-08T08:24:43.480Z,66.2
2016-02-08T08:25:43.576Z,66.39
2016-02-08T08:26:43.503Z,66.39
2016-02-08T08:27:43.474Z,65.73
2016-02-08T08:28:43.476Z,65.92
2016-02-08T08:29:43.545Z,65.73
2016-02-08T08:30:43.500Z,65.92
2016-02-08T08:31:43.628Z,65.92
2016-02-08T08:32:43.599Z,65.92
2016-02-08T08:33:43.617Z,65.92
2016-02-08T08:34:43.637Z,65.92
2016-02-08T08:35:43.545Z,65.92
2016-02-08T08:36:43.612Z,65.73
2016-02-08T08:37:43.567Z,65.54
2016-02-08T08:38:43.460Z,65.16
2016-02-08T08:39:43.448Z,65.16
2016-02-08T08:40:43.497Z,65.35
2016-02-08T08:41:43.624Z,65.25
2016-02-08T08:42:43.519Z,65.35
2016-02-08T08:43:43.459Z,65.28
2016-02-08T08:44:43.556Z,65.76
2016-02-08T08:45:43.495Z,65.35
2016-02-08T08:46:43.451Z,65.16
2016-02-08T08:47:43.611Z,65.25
2016-02-08T08:48:43.614Z,65.44
2016-02-08T08:49:43.413Z,65.47
2016-02-08T08:50:43.416Z,65.54
2016-02-08T08:51:43.404Z,65.57
2016-02-08T08:52:43.392Z,64.97
2016-02-08T08:53:43.394Z,65.06
2016-02-08T08:54:43.412Z,64.81
2016-02-08T08:55:43.400Z,64.9
2016-02-08T08:56:43.403Z,64.9
2016-02-08T08:57:43.406Z,64.72
2016-02-08T08:58:43.596Z,64.81
2016-02-08T08:59:43.614Z,65.09
2016-02-08T09:00:43.570Z,65.28
2016-02-08T09:01:43.543Z,64.9
2016-02-08T09:02:43.592Z,65.19
2016-02-08T09:03:43.564Z,64.72
2016-02-08T09:04:43.399Z,64.72
2016-02-08T09:05:43.385Z,64.9
2016-02-08T09:06:43.388Z,64.62
2016-02-08T09:07:43.391Z,64.9
2016-02-08T09:08:43.393Z,64.14
2016-02-08T09:09:43.381Z,64.72
2016-02-08T09:10:43.383Z,64.05
2016-02-08T09:11:43.389Z,64.24
2016-02-08T09:12:43.392Z,63.86
2016-02-08T09:13:43.379Z,63.95
2016-02-08T09:14:43.384Z,64.72
2016-02-08T09:15:43.433Z,64.72
2016-02-08T09:16:43.388Z,64.43
2016-02-08T09:17:43.376Z,64.72
2016-02-08T09:18:43.379Z,64.24
2016-02-08T09:19:43.382Z,64.05
2016-02-08T09:20:43.371Z,64.24
2016-02-08T09:21:43.374Z,64.43
2016-02-08T09:22:43.377Z,64.81
2016-02-08T09:23:43.379Z,64.43
2016-02-08T09:24:43.383Z,63.95
2016-02-08T09:25:43.385Z,63.95
2016-02-08T09:26:43.387Z,64.53
2016-02-08T09:27:43.391Z,64.14
2016-02-08T09:28:43.393Z,64.14
2016-02-08T09:29:43.380Z,64.14
2016-02-08T09:30:43.384Z,64.24
2016-02-08T09:31:43.370Z,64.14
2016-02-08T09:32:43.373Z,64.05
2016-02-08T09:33:43.392Z,64.34
2016-02-08T09:34:43.378Z,63.76
2016-02-08T09:35:43.397Z,63.29
2016-02-08T09:36:43.368Z,63.86
2016-02-08T09:37:43.386Z,63.29
2016-02-08T09:38:43.374Z,63.57
2016-02-08T09:39:43.361Z,63.48
2016-02-08T09:40:43.381Z,63.76
2016-02-08T09:41:43.367Z,63.01
2016-02-08T09:42:43.369Z,63.29
2016-02-08T09:43:43.373Z,63.2
2016-02-08T09:44:43.377Z,63.1
2016-02-08T09:45:43.364Z,62.34
2016-02-08T09:46:43.383Z,62.81
2016-02-08T09:47:43.369Z,62.05
2016-02-08T09:48:43.388Z,62.24
2016-02-08T09:49:43.374Z,62.15
2016-02-08T09:50:43.377Z,62.08
2016-02-08T09:51:43.380Z,62.18
2016-02-08T09:52:43.369Z,62.18
2016-02-08T09:53:43.373Z,61.61
2016-02-08T09:54:43.562Z,62.18
2016-02-08T09:55:43.564Z,62.18
2016-02-08T09:57:28.508Z,61.9
2016-02-08T10:02:13.597Z,61.71
2016-02-08T10:03:05.209Z,61.96
2016-02-08T10:04:05.195Z,62.18
2016-02-08T10:05:05.667Z,61.42
2016-02-08T10:06:05.247Z,62.08
2016-02-08T10:07:05.366Z,61.8
2016-02-08T10:08:05.383Z,61.71
2016-02-08T10:09:05.199Z,62.08
2016-02-08T10:10:05.217Z,61.8
2016-02-08T10:11:05.392Z,61.52
2016-02-08T10:12:05.442Z,61.61
2016-02-08T10:13:05.210Z,61.8
2016-02-08T10:14:05.353Z,61.9
2016-02-08T10:15:05.374Z,61.52
2016-02-08T10:16:05.298Z,61.42
2016-02-08T10:17:05.379Z,61.13
2016-02-08T10:18:05.272Z,61.61
2016-02-08T10:19:05.275Z,61.42
2016-02-08T10:20:05.248Z,61.23
2016-02-08T10:21:05.266Z,60.75
2016-02-08T10:22:05.409Z,60.94
2016-02-08T10:23:05.272Z,61.52
2016-02-08T10:24:05.383Z,61.23
2016-02-08T10:25:05.402Z,61.61
2016-02-08T10:26:05.202Z,61.13
2016-02-08T10:27:05.266Z,61.04
2016-02-08T10:28:05.395Z,60.57
2016-02-08T10:29:05.350Z,60.57
2016-02-08T10:30:05.385Z,59.99
2016-02-08T10:31:05.293Z,59.8
2016-02-08T10:32:05.437Z,59.8
2016-02-08T10:33:05.299Z,59.8
2016-02-08T10:34:05.380Z,59.99
2016-02-08T10:35:05.289Z,59.71
2016-02-08T10:36:05.385Z,59.61
2016-02-08T10:37:05.279Z,60.09
2016-02-08T10:38:05.250Z,59.61
2016-02-08T10:39:05.393Z,59.9
2016-02-08T10:40:05.413Z,59.99
2016-02-08T10:41:05.461Z,60.09
2016-02-08T10:42:05.278Z,59.71
2016-02-08T10:43:05.234Z,59.42
2016-02-08T10:44:05.502Z,59.23
2016-02-08T10:45:05.474Z,59.61
2016-02-08T10:46:05.445Z,59.23
2016-02-08T10:47:05.214Z,59.17
2016-02-08T10:48:05.278Z,59.17
2016-02-08T10:49:05.423Z,59.27
2016-02-08T10:50:05.691Z,58.5
2016-02-08T10:51:05.521Z,58.98
2016-02-08T10:52:05.227Z,58.98
2016-02-08T10:53:05.386Z,59.27
2016-02-08T10:54:05.591Z,58.79
2016-02-08T10:55:05.454Z,58.69
2016-02-08T10:56:05.346Z,58.98
2016-02-08T10:57:05.303Z,58.98
2016-02-08T10:58:05.337Z,59.07
2016-02-08T10:59:05.433Z,58.98
2016-02-08T11:00:05.280Z,58.88
2016-02-08T11:01:05.298Z,58.98
2016-02-08T11:02:05.316Z,58.98
2016-02-08T11:03:05.398Z,59.17
2016-02-08T11:04:05.511Z,58.22
2016-02-08T11:05:04.825Z,58.22
2016-02-08T11:06:05.312Z,58.59
2016-02-08T11:07:05.300Z,58.12
2016-02-08T11:08:05.427Z,58.4
2016-02-08T11:09:05.433Z,58.69
2016-02-08T11:10:05.311Z,58.69
2016-02-08T11:11:05.302Z,58.79
2016-02-08T11:12:05.507Z,58.12
2016-02-08T11:13:05.416Z,58.12
2016-02-08T11:14:04.747Z,58.22
2016-02-08T11:15:05.765Z,58.12
2016-02-08T11:16:05.393Z,58.5
2016-02-08T11:17:05.428Z,58.22
2016-02-08T11:18:05.306Z,58.12
2016-02-08T11:19:05.340Z,57.65
2016-02-08T11:20:05.420Z,58.12
2016-02-08T11:21:05.440Z,58.12
2016-02-08T11:22:05.364Z,57.93
2016-02-08T11:23:05.491Z,58.22
2016-02-08T11:24:05.463Z,58.12
2016-02-08T11:25:05.451Z,57.26
2016-02-08T11:26:05.423Z,57.74
2016-02-08T11:27:05.472Z,58.22
2016-02-08T11:28:05.413Z,58.22
2016-02-08T11:29:05.259Z,58.03
2016-02-08T11:30:05.250Z,58.69
2016-02-08T11:31:05.346Z,57.93
2016-02-08T11:32:05.459Z,58.03
2016-02-08T11:33:05.462Z,57.93
2016-02-08T11:34:05.323Z,58.25
2016-02-08T11:35:05.545Z,58.25
2016-02-08T11:36:05.453Z,57.45
2016-02-08T11:37:05.257Z,58.25
2016-02-08T11:38:05.983Z,58.12
2016-02-08T11:39:05.422Z,57.96
2016-02-08T11:40:05.456Z,58.15
2016-02-08T11:41:05.491Z,58.44
2016-02-08T11:42:05.369Z,57.39
2016-02-08T11:43:05.339Z,58.34
2016-02-08T11:44:05.407Z,58.15
2016-02-08T11:45:05.347Z,57.58
2016-02-08T11:46:05.335Z,56.82
2016-02-08T11:47:05.447Z,57.48
2016-02-08T11:48:05.356Z,57.48
2016-02-08T11:49:05.359Z,57.58
2016-02-08T11:50:05.455Z,57.67
2016-02-08T11:51:05.411Z,57.29
2016-02-08T11:52:05.915Z,57.58
2016-02-08T11:53:05.542Z,57.77
2016-02-08T11:54:05.420Z,57.29
2016-02-08T11:55:05.485Z,57.48
2016-02-08T11:56:05.426Z,57.58
2016-02-08T11:57:05.652Z,57.51
2016-02-08T11:58:05.560Z,57.42
2016-02-08T11:59:05.391Z,57.23
2016-02-08T12:00:05.444Z,57.42
2016-02-08T12:01:05.369Z,57.8
2016-02-08T12:02:05.402Z,57.42
2016-02-08T12:03:05.233Z,56.85
2016-02-08T12:04:05.564Z,57.13
2016-02-08T12:05:05.475Z,57.13
2016-02-08T12:06:05.555Z,57.23
2016-02-08T12:07:05.547Z,56.68
2016-02-08T12:08:05.441Z,56.59
2016-02-08T12:09:05.536Z,56.49
2016-02-08T12:10:05.414Z,56.49
2016-02-08T12:11:05.526Z,56.68
2016-02-08T12:12:05.405Z,56.3
2016-02-08T12:13:05.455Z,56.11
2016-02-08T12:14:05.550Z,55.83
2016-02-08T12:15:05.492Z,56.11
2016-02-08T12:16:05.416Z,55.92
2016-02-08T12:17:05.544Z,55.92
2016-02-08T12:18:05.624Z,55.83
2016-02-08T12:19:05.439Z,56.21
2016-02-08T12:20:05.474Z,55.83
2016-02-08T12:21:05.445Z,56.4
2016-02-08T12:22:05.447Z,55.83
2016-02-08T12:23:05.591Z,56.11
2016-02-08T12:24:05.594Z,56.11
2016-02-08T12:25:05.580Z,56.02
2016-02-08T12:26:05.458Z,56.71
2016-02-08T12:27:05.619Z,55.85
2016-02-08T12:28:05.621Z,55
2016-02-08T12:29:05.608Z,55
2016-02-08T12:30:05.627Z,55.47
2016-02-08T12:31:05.629Z,55.38
2016-02-08T12:32:05.553Z,55.09
2016-02-08T12:33:05.635Z,55.19
2016-02-08T12:34:05.496Z,54.8
2016-02-08T12:35:05.625Z,54.71
2016-02-08T12:36:05.612Z,54.9
2016-02-08T12:37:05.631Z,54.8
2016-02-08T12:38:05.634Z,54.83
2016-02-08T12:39:05.464Z,54.71
2016-02-08T12:40:04.968Z,54.43
2016-02-08T12:41:05.455Z,55.28
2016-02-08T12:42:05.707Z,54.52
2016-02-08T12:43:05.571Z,54.8
2016-02-08T12:44:05.558Z,54.17
2016-02-08T12:45:04.794Z,54.26
2016-02-08T12:46:05.626Z,54.17
2016-02-08T12:47:49.569Z,54.17
2016-02-08T12:48:06.039Z,54.07
2016-02-08T12:49:05.588Z,54.17
2016-02-08T12:50:08.715Z,53.41
2016-02-08T12:51:05.640Z,53.31
2016-02-08T12:52:05.626Z,53.41
2016-02-08T12:53:05.583Z,53.21
2016-02-08T12:54:05.648Z,53.31
2016-02-08T12:55:05.635Z,53.02
2016-02-08T12:56:05.590Z,52.92
2016-02-08T12:57:05.703Z,53.21
2016-02-08T12:58:05.565Z,53.02
2016-02-08T12:59:05.676Z,52.92
2016-02-08T13:00:05.743Z,52.67